createdAt,value
2023-03-20T00:00:24.369Z,9.83
2023-03-20T00:02:28.023Z,9.03
2023-03-20T00:04:31.567Z,11.13
2023-03-20T00:06:35.490Z,9.90
2023-03-20T00:08:39.734Z,10.63
2023-03-20T00:10:46.658Z,11.83
2023-03-20T00:12:51.940Z,10.40
2023-03-20T00:14:55.512Z,11.90
2023-03-20T00:17:00.218Z,10.17
2023-03-20T00:19:03.966Z,9.83
2023-03-20T00:21:11.794Z,10.40
2023-03-20T00:23:16.289Z,11.73
2023-03-20T00:25:22.263Z,9.07
2023-03-20T00:27:25.848Z,8.70
2023-03-20T00:29:34.423Z,10.10
2023-03-20T00:31:39.636Z,10.20
2023-03-20T00:33:43.088Z,9.57
2023-03-20T00:35:46.537Z,12.60
2023-03-20T00:37:52.076Z,17.40
2023-03-20T00:39:55.484Z,12.33
2023-03-20T00:42:01.760Z,11.30
2023-03-20T00:44:17.765Z,9.63
2023-03-20T00:46:23.081Z,9.10
2023-03-20T00:48:27.058Z,8.40
2023-03-20T00:50:32.107Z,11.00
2023-03-20T00:52:36.080Z,11.40
2023-03-20T00:54:39.541Z,14.87
2023-03-20T00:56:46.832Z,8.40
2023-03-20T00:58:50.658Z,9.63
2023-03-20T01:00:54.652Z,13.87
2023-03-20T01:03:00.733Z,12.10
2023-03-20T01:05:05.893Z,9.63
2023-03-20T01:07:15.207Z,11.47
2023-03-20T01:09:19.195Z,10.00
2023-03-20T01:11:25.116Z,11.00
2023-03-20T01:13:30.657Z,12.80
2023-03-20T01:15:35.631Z,12.43
2023-03-20T01:17:40.018Z,10.80
2023-03-20T01:19:44.858Z,9.83
2023-03-20T01:21:48.452Z,13.53
2023-03-20T01:23:51.944Z,8.83
2023-03-20T01:25:55.433Z,9.37
2023-03-20T01:27:59.027Z,11.23
2023-03-20T01:30:05.057Z,9.57
2023-03-20T01:32:12.889Z,13.50
2023-03-20T01:34:17.441Z,9.17
2023-03-20T01:36:24.892Z,10.60
2023-03-20T01:38:29.246Z,12.83
2023-03-20T01:40:45.214Z,11.27
2023-03-20T01:42:51.824Z,10.40
2023-03-20T01:44:55.665Z,10.67
2023-03-20T01:47:00.044Z,10.70
2023-03-20T01:49:49.307Z,10.47
2023-03-20T01:51:54.539Z,12.50
2023-03-20T01:54:03.017Z,11.97
2023-03-20T01:56:09.458Z,10.43
2023-03-20T01:58:24.837Z,9.10
2023-03-20T02:00:28.682Z,9.37
2023-03-20T02:02:34.145Z,9.97
2023-03-20T02:04:46.373Z,9.23
2023-03-20T02:06:52.683Z,7.80
2023-03-20T02:09:17.098Z,8.67
2023-03-20T02:11:25.149Z,9.60
2023-03-20T02:13:31.378Z,9.23
2023-03-20T02:15:36.999Z,8.40
2023-03-20T02:17:50.174Z,12.27
2023-03-20T02:20:04.220Z,9.10
2023-03-20T02:25:03.363Z,14.23
2023-03-20T02:27:20.219Z,14.03
2023-03-20T02:30:07.896Z,12.20
2023-03-20T02:32:39.789Z,12.10
2023-03-20T02:34:58.199Z,11.27
2023-03-20T02:37:31.571Z,13.93
2023-03-20T02:39:57.929Z,12.43
2023-03-20T02:42:09.951Z,13.87
2023-03-20T02:44:21.121Z,10.10
2023-03-20T02:46:41.085Z,10.87
2023-03-20T02:48:57.687Z,12.37
2023-03-20T02:51:11.082Z,11.17
2023-03-20T02:53:23.725Z,10.43
2023-03-20T02:55:37.548Z,11.30
2023-03-20T02:57:49.032Z,12.73
2023-03-20T02:59:59.583Z,10.20
2023-03-20T03:02:08.066Z,11.23
2023-03-20T03:04:17.663Z,10.57
2023-03-20T03:06:27.565Z,9.77
2023-03-20T03:08:38.050Z,16.10
2023-03-20T03:10:46.056Z,9.90
2023-03-20T03:12:52.650Z,10.80
2023-03-20T03:15:01.174Z,10.57
2023-03-20T03:17:07.644Z,9.17
2023-03-20T03:19:16.883Z,10.40
2023-03-20T03:21:22.407Z,12.70
2023-03-20T03:23:29.989Z,14.77
2023-03-20T03:25:36.397Z,13.57
2023-03-20T03:27:45.236Z,11.20
2023-03-20T03:29:53.924Z,9.83
2023-03-20T03:31:58.620Z,10.60
2023-03-20T03:34:03.104Z,14.87
2023-03-20T03:36:14.089Z,12.00
2023-03-20T03:38:29.522Z,12.80
2023-03-20T03:40:45.774Z,13.07
2023-03-20T03:42:59.000Z,13.50
2023-03-20T03:45:10.386Z,13.80
2023-03-20T03:47:21.103Z,13.27
2023-03-20T03:49:28.537Z,13.30
2023-03-20T03:51:36.126Z,12.23
2023-03-20T03:53:49.798Z,10.70
2023-03-20T03:55:56.552Z,12.40
2023-03-20T03:58:04.807Z,9.63
2023-03-20T04:00:12.699Z,11.07
2023-03-20T04:02:23.322Z,16.83
2023-03-20T04:04:28.447Z,14.20
2023-03-20T04:06:33.265Z,12.83
2023-03-20T04:08:36.944Z,14.37
2023-03-20T04:10:40.409Z,15.87
2023-03-20T04:12:46.400Z,14.07
2023-03-20T04:15:03.222Z,13.87
2023-03-20T04:17:16.991Z,13.80
2023-03-20T04:19:21.083Z,14.57
2023-03-20T04:21:25.868Z,13.33
2023-03-20T04:23:30.657Z,16.30
2023-03-20T04:25:35.210Z,15.03
2023-03-20T04:27:39.227Z,17.33
2023-03-20T04:29:49.459Z,14.17
2023-03-20T04:32:06.418Z,11.57
2023-03-20T04:34:23.458Z,13.53
2023-03-20T04:36:45.651Z,11.97
2023-03-20T04:38:51.663Z,13.40
2023-03-20T04:40:55.721Z,14.23
2023-03-20T04:42:59.325Z,16.20
2023-03-20T04:45:03.260Z,14.90
2023-03-20T04:47:08.978Z,12.47
2023-03-20T04:49:16.970Z,12.97
2023-03-20T04:51:20.560Z,12.27
2023-03-20T04:53:29.790Z,12.97
2023-03-20T04:55:33.496Z,12.47
2023-03-20T04:57:37.018Z,11.90
2023-03-20T04:59:42.264Z,13.67
2023-03-20T05:01:49.413Z,13.13
2023-03-20T05:04:00.627Z,9.00
2023-03-20T05:06:09.123Z,13.43
2023-03-20T05:08:13.890Z,12.23
2023-03-20T05:10:19.449Z,13.43
2023-03-20T05:12:30.238Z,13.73
2023-03-20T05:14:41.381Z,18.20
2023-03-20T05:16:59.490Z,12.60
2023-03-20T05:19:33.456Z,11.20
2023-03-20T05:21:43.028Z,12.50
2023-03-20T05:24:04.346Z,12.50
2023-03-20T05:26:27.289Z,13.40
2023-03-20T05:28:49.199Z,10.83
2023-03-20T05:31:18.952Z,12.60
2023-03-20T05:33:41.538Z,13.00
2023-03-20T05:35:59.795Z,11.60
2023-03-20T05:38:23.445Z,11.47
2023-03-20T05:40:45.509Z,10.87
2023-03-20T05:43:01.273Z,12.93
2023-03-20T05:45:05.584Z,16.10
2023-03-20T05:47:29.452Z,14.00
2023-03-20T05:49:33.400Z,14.97
2023-03-20T05:52:00.981Z,13.10
2023-03-20T05:54:22.964Z,13.37
2023-03-20T05:56:38.416Z,14.10
2023-03-20T05:59:05.592Z,13.93
2023-03-20T06:01:21.271Z,14.70
2023-03-20T06:03:57.849Z,10.90
2023-03-20T06:06:29.943Z,15.20
2023-03-20T06:08:36.401Z,14.37
2023-03-20T06:10:40.504Z,13.67
2023-03-20T06:12:47.625Z,12.80
2023-03-20T06:14:51.887Z,11.47
2023-03-20T06:16:58.032Z,14.33
2023-03-20T06:19:02.846Z,16.03
2023-03-20T06:21:07.565Z,13.27
2023-03-20T06:23:11.165Z,11.23
2023-03-20T06:25:16.331Z,13.40
2023-03-20T06:27:21.456Z,13.83
2023-03-20T06:29:26.604Z,12.33
2023-03-20T06:31:34.307Z,16.30
2023-03-20T06:33:40.981Z,11.77
2023-03-20T06:35:46.888Z,12.33
2023-03-20T06:37:51.211Z,12.47
2023-03-20T06:40:01.112Z,11.67
2023-03-20T06:42:07.056Z,16.57
2023-03-20T06:44:10.996Z,12.73
2023-03-20T06:46:43.903Z,16.67
2023-03-20T06:48:48.422Z,11.97
2023-03-20T06:50:53.674Z,11.57
2023-03-20T06:53:00.460Z,12.63
2023-03-20T06:55:31.128Z,12.47
2023-03-20T06:57:36.144Z,14.73
2023-03-20T06:59:40.009Z,12.57
2023-03-20T07:01:43.497Z,14.50
2023-03-20T07:03:47.457Z,12.80
2023-03-20T07:05:55.407Z,14.43
2023-03-20T07:07:59.977Z,12.93
2023-03-20T07:10:04.452Z,11.80
2023-03-20T07:12:14.582Z,11.47
2023-03-20T07:14:20.274Z,11.83
2023-03-20T07:16:38.459Z,12.90
2023-03-20T07:18:42.095Z,14.43
2023-03-20T07:20:46.439Z,8.20
2023-03-20T07:22:50.195Z,13.10
2023-03-20T07:24:58.030Z,12.73
2023-03-20T07:27:02.284Z,16.60
2023-03-20T07:29:07.395Z,14.07
2023-03-20T07:31:21.210Z,13.00
2023-03-20T07:33:28.899Z,14.47
2023-03-20T07:35:32.663Z,11.93
2023-03-20T07:37:36.615Z,14.00
2023-03-20T07:39:41.144Z,11.67
2023-03-20T07:42:03.267Z,12.10
2023-03-20T07:44:19.397Z,11.20
2023-03-20T07:46:30.998Z,13.10
2023-03-20T07:48:38.470Z,10.63
2023-03-20T07:50:42.737Z,11.37
2023-03-20T07:52:47.870Z,12.27
2023-03-20T07:54:51.557Z,10.37
2023-03-20T07:56:55.773Z,11.43
2023-03-20T07:58:59.173Z,10.83
2023-03-20T08:01:03.615Z,10.70
2023-03-20T08:03:08.914Z,12.97
2023-03-20T08:05:12.749Z,13.27
2023-03-20T08:07:16.608Z,12.57
2023-03-20T08:09:20.448Z,12.13
2023-03-20T08:11:24.321Z,12.13
2023-03-20T08:13:27.842Z,10.20
2023-03-20T08:15:31.376Z,12.10
2023-03-20T08:17:35.600Z,9.97
2023-03-20T08:19:40.483Z,11.33
2023-03-20T08:21:43.905Z,9.90
2023-03-20T08:23:47.764Z,9.67
2023-03-20T08:25:52.579Z,8.47
2023-03-20T08:27:56.078Z,11.83
2023-03-20T08:30:00.084Z,7.20
2023-03-20T08:32:03.637Z,7.27
2023-03-20T08:34:07.361Z,10.13
2023-03-20T08:36:12.501Z,7.70
2023-03-20T08:38:16.469Z,10.13
2023-03-20T08:40:20.205Z,10.10
2023-03-20T08:42:27.196Z,8.90
2023-03-20T08:44:30.887Z,9.40
2023-03-20T08:46:34.863Z,12.47
2023-03-20T08:48:38.529Z,11.63
2023-03-20T08:50:42.285Z,9.27
2023-03-20T08:52:47.281Z,9.37
2023-03-20T08:54:51.223Z,9.60
2023-03-20T08:56:54.822Z,10.00
2023-03-20T08:58:58.345Z,10.00
2023-03-20T09:01:05.466Z,9.23
2023-03-20T09:03:08.985Z,10.80
2023-03-20T09:05:13.414Z,10.27
2023-03-20T09:07:17.193Z,8.80
2023-03-20T09:09:27.031Z,8.33
2023-03-20T09:11:30.687Z,8.57
2023-03-20T09:13:34.260Z,10.37
2023-03-20T09:15:38.321Z,9.47
2023-03-20T09:17:42.088Z,10.60
2023-03-20T09:19:45.673Z,10.80
2023-03-20T09:21:49.257Z,10.90
2023-03-20T09:23:52.710Z,10.03
2023-03-20T09:25:57.480Z,8.80
2023-03-20T09:28:00.930Z,8.67
2023-03-20T09:30:05.245Z,12.27
2023-03-20T09:32:10.920Z,10.50
2023-03-20T09:34:14.554Z,11.00
2023-03-20T09:36:18.226Z,10.33
2023-03-20T09:38:22.071Z,11.00
2023-03-20T09:40:30.005Z,9.00
2023-03-20T09:42:48.932Z,14.13
2023-03-20T09:44:58.803Z,13.20
2023-03-20T09:47:20.152Z,9.77
2023-03-20T09:49:38.403Z,11.17
2023-03-20T09:51:49.640Z,9.00
2023-03-20T09:53:59.280Z,9.50
2023-03-20T09:56:06.158Z,11.63
2023-03-20T09:58:21.797Z,8.80
2023-03-20T10:00:27.464Z,10.60
2023-03-20T10:02:40.566Z,15.03
2023-03-20T10:04:48.272Z,12.23
2023-03-20T10:06:51.879Z,9.03
2023-03-20T10:08:55.444Z,13.80
2023-03-20T10:11:09.490Z,13.80
2023-03-20T10:13:31.749Z,9.80
2023-03-20T10:15:46.301Z,11.23
2023-03-20T10:18:02.401Z,7.17
2023-03-20T10:20:14.944Z,11.40
2023-03-20T10:22:25.775Z,10.80
2023-03-20T10:24:32.172Z,5.77
2023-03-20T10:26:37.280Z,6.10
2023-03-20T10:28:49.072Z,5.93
2023-03-20T10:31:03.082Z,5.80
2023-03-20T10:33:22.133Z,7.40
2023-03-20T10:35:32.463Z,7.37
2023-03-20T10:37:52.451Z,7.00
2023-03-20T10:40:05.543Z,5.40
2023-03-20T10:42:18.232Z,5.07
2023-03-20T10:44:30.394Z,7.40
2023-03-20T10:46:38.587Z,9.97
2023-03-20T10:48:46.363Z,12.00
2023-03-20T10:50:55.523Z,6.23
2023-03-20T10:53:00.536Z,3.40
2023-03-20T10:55:07.991Z,4.70
2023-03-20T10:57:19.025Z,5.50
2023-03-20T10:59:27.407Z,5.83
2023-03-20T11:01:31.022Z,5.60
2023-03-20T11:03:38.874Z,6.60
2023-03-20T11:05:42.499Z,6.67
2023-03-20T11:07:48.402Z,5.13
2023-03-20T11:10:11.630Z,6.20
2023-03-20T11:12:19.117Z,4.40
2023-03-20T11:14:25.913Z,3.30
2023-03-20T11:16:33.140Z,5.90
2023-03-20T11:18:36.784Z,4.70
2023-03-20T11:20:45.638Z,6.10
2023-03-20T11:22:51.098Z,4.20
2023-03-20T11:24:58.800Z,5.77
2023-03-20T11:27:07.944Z,6.03
2023-03-20T11:29:23.188Z,5.63
2023-03-20T11:31:35.013Z,4.83
2023-03-20T11:33:41.091Z,8.43
2023-03-20T11:35:47.918Z,7.23
2023-03-20T11:37:53.794Z,4.30
2023-03-20T11:40:02.239Z,6.37
2023-03-20T11:42:22.575Z,5.60
2023-03-20T11:44:28.229Z,6.03
2023-03-20T11:46:33.054Z,6.40
2023-03-20T11:48:39.424Z,15.13
2023-03-20T11:50:46.408Z,6.23
2023-03-20T11:52:49.927Z,7.87
2023-03-20T11:54:56.758Z,9.10
2023-03-20T11:57:01.379Z,4.47
2023-03-20T11:59:13.592Z,7.63
2023-03-20T12:01:17.387Z,7.10
2023-03-20T12:03:55.339Z,6.70
2023-03-20T12:06:01.097Z,4.90
2023-03-20T12:08:10.333Z,5.57
2023-03-20T12:10:19.648Z,10.23
2023-03-20T12:12:35.961Z,3.93
2023-03-20T12:14:46.722Z,7.30
2023-03-20T12:16:53.239Z,8.13
2023-03-20T12:19:03.491Z,4.47
2023-03-20T12:21:10.745Z,5.27
2023-03-20T12:23:16.199Z,7.17
2023-03-20T12:25:24.282Z,7.83
2023-03-20T12:27:32.342Z,5.77
2023-03-20T12:29:44.244Z,6.50
2023-03-20T12:31:52.942Z,7.80
2023-03-20T12:34:02.287Z,7.10
2023-03-20T12:36:13.609Z,6.90
2023-03-20T12:38:25.739Z,6.00
2023-03-20T12:40:39.613Z,6.57
2023-03-20T12:42:58.204Z,3.83
2023-03-20T12:45:07.038Z,7.30
2023-03-20T12:47:24.583Z,4.93
2023-03-20T12:49:39.963Z,7.33
2023-03-20T12:51:54.643Z,12.03
2023-03-20T12:54:13.765Z,7.83
2023-03-20T12:56:27.304Z,4.40
2023-03-20T12:58:41.796Z,3.37
2023-03-20T13:00:53.448Z,3.43
2023-03-20T13:03:09.258Z,2.20
2023-03-20T13:05:28.235Z,2.60
2023-03-20T13:07:48.263Z,5.23
2023-03-20T13:10:13.496Z,6.80
2023-03-20T13:12:27.108Z,3.10
2023-03-20T13:14:40.302Z,5.20
2023-03-20T13:16:51.652Z,4.60
2023-03-20T13:19:04.026Z,3.77
2023-03-20T13:21:14.717Z,4.23
2023-03-20T13:23:31.937Z,4.33
2023-03-20T13:25:53.658Z,2.97
2023-03-20T13:28:04.443Z,3.57
2023-03-20T13:30:16.365Z,3.90
2023-03-20T13:32:28.467Z,2.00
2023-03-20T13:34:54.000Z,4.60
2023-03-20T13:37:23.414Z,2.20
2023-03-20T13:39:33.919Z,2.33
2023-03-20T13:41:38.129Z,4.90
2023-03-20T13:43:44.712Z,5.13
2023-03-20T13:45:50.850Z,3.27
2023-03-20T13:47:55.979Z,3.97
2023-03-20T13:50:06.279Z,4.50
2023-03-20T13:52:16.217Z,4.27
2023-03-20T13:54:39.782Z,6.27
2023-03-20T13:56:54.822Z,2.10
2023-03-20T13:59:16.366Z,3.60
2023-03-20T14:01:26.088Z,3.23
2023-03-20T14:03:33.482Z,6.13
2023-03-20T14:05:39.163Z,4.07
2023-03-20T14:07:47.549Z,4.70
2023-03-20T14:09:55.000Z,2.43
2023-03-20T14:12:02.854Z,7.77
2023-03-20T14:14:13.998Z,2.50
2023-03-20T14:16:20.732Z,3.10
2023-03-20T14:18:26.498Z,6.37
2023-03-20T14:20:34.114Z,4.23
2023-03-20T14:22:40.879Z,3.70
2023-03-20T14:24:54.875Z,4.03
2023-03-20T14:27:00.562Z,4.30
2023-03-20T14:29:22.638Z,3.03
2023-03-20T14:31:31.067Z,4.60
2023-03-20T14:33:34.516Z,3.03
2023-03-20T14:35:40.023Z,2.80
2023-03-20T14:38:14.769Z,4.07
2023-03-20T14:40:23.365Z,6.50
2023-03-20T14:42:38.572Z,3.57
2023-03-20T14:44:56.606Z,5.53
2023-03-20T14:47:06.789Z,4.57
2023-03-20T14:49:50.018Z,5.47
2023-03-20T14:51:59.535Z,4.67
2023-03-20T14:54:24.520Z,7.40
2023-03-20T14:56:34.331Z,6.47
2023-03-20T14:58:54.417Z,3.33
2023-03-20T15:01:04.183Z,5.80
2023-03-20T15:03:10.413Z,3.07
2023-03-20T15:05:24.768Z,10.80
2023-03-20T15:07:32.504Z,5.87
2023-03-20T15:09:40.191Z,8.90
2023-03-20T15:11:45.342Z,6.97
2023-03-20T15:13:50.387Z,4.40
2023-03-20T15:15:56.047Z,6.83
2023-03-20T15:18:05.882Z,6.70
2023-03-20T15:20:16.305Z,3.40
2023-03-20T15:22:21.906Z,5.30
2023-03-20T15:24:27.702Z,4.97
2023-03-20T15:26:34.532Z,5.70
2023-03-20T15:28:40.318Z,4.00
2023-03-20T15:30:46.268Z,5.93
2023-03-20T15:32:51.326Z,3.80
2023-03-20T15:34:54.854Z,4.33
2023-03-20T15:37:00.972Z,4.13
2023-03-20T15:39:08.201Z,5.27
2023-03-20T15:41:26.474Z,9.33
2023-03-20T15:43:30.042Z,7.97
2023-03-20T15:45:38.829Z,6.73
2023-03-20T15:47:44.047Z,4.27
2023-03-20T15:49:51.797Z,4.17
2023-03-20T15:51:59.301Z,3.83
2023-03-20T15:54:07.821Z,4.80
2023-03-20T15:56:18.555Z,4.17
2023-03-20T15:58:22.611Z,3.83
2023-03-20T16:00:31.471Z,3.33
2023-03-20T16:02:38.239Z,5.10
2023-03-20T16:04:47.591Z,3.33
2023-03-20T16:06:54.686Z,5.47
2023-03-20T16:09:00.451Z,2.90
2023-03-20T16:11:07.045Z,4.80
2023-03-20T16:13:17.253Z,3.23
2023-03-20T16:15:22.121Z,5.53
2023-03-20T16:17:27.163Z,5.53
2023-03-20T16:19:32.104Z,4.37
2023-03-20T16:21:39.885Z,4.90
2023-03-20T16:23:46.849Z,12.37
2023-03-20T16:25:50.372Z,6.03
2023-03-20T16:27:55.096Z,9.00
2023-03-20T16:29:58.782Z,6.40
2023-03-20T16:32:05.370Z,4.97
2023-03-20T16:34:10.932Z,13.60
2023-03-20T16:36:18.837Z,7.87
2023-03-20T16:38:26.683Z,4.03
2023-03-20T16:40:33.013Z,2.87
2023-03-20T16:42:39.273Z,4.27
2023-03-20T16:44:43.308Z,4.60
2023-03-20T16:46:58.698Z,4.10
2023-03-20T16:49:36.348Z,4.37
2023-03-20T16:51:44.887Z,4.50
2023-03-20T16:53:50.411Z,3.33
2023-03-20T16:55:57.880Z,3.63
2023-03-20T16:58:05.529Z,7.93
2023-03-20T17:00:21.618Z,6.13
2023-03-20T17:02:26.538Z,5.50
2023-03-20T17:04:35.225Z,8.00
2023-03-20T17:06:45.572Z,5.27
2023-03-20T17:08:51.909Z,5.43
2023-03-20T17:11:00.503Z,6.47
2023-03-20T17:13:06.337Z,2.50
2023-03-20T17:15:14.822Z,7.03
2023-03-20T17:17:21.290Z,6.37
2023-03-20T17:19:25.605Z,6.33
2023-03-20T17:21:29.855Z,3.40
2023-03-20T17:23:35.000Z,4.50
2023-03-20T17:25:38.700Z,5.70
2023-03-20T17:27:42.402Z,5.00
2023-03-20T17:29:46.955Z,3.83
2023-03-20T17:31:50.577Z,6.87
2023-03-20T17:33:54.550Z,5.80
2023-03-20T17:35:59.364Z,4.17
2023-03-20T17:38:03.037Z,8.57
2023-03-20T17:40:12.499Z,7.53
2023-03-20T17:42:19.368Z,5.20
2023-03-20T17:44:23.358Z,4.43
2023-03-20T17:46:28.827Z,7.23
2023-03-20T17:48:32.763Z,5.67
2023-03-20T17:50:36.459Z,4.27
2023-03-20T17:52:40.358Z,4.73
2023-03-20T17:54:43.965Z,4.90
2023-03-20T17:56:48.778Z,4.03
2023-03-20T17:58:52.187Z,6.30
2023-03-20T18:00:56.352Z,4.20
2023-03-20T18:03:00.052Z,4.50
2023-03-20T18:05:03.529Z,2.60
2023-03-20T18:07:07.136Z,3.80
2023-03-20T18:09:14.606Z,3.27
2023-03-20T18:11:18.094Z,7.50
2023-03-20T18:13:25.388Z,3.10
2023-03-20T18:15:29.304Z,5.00
2023-03-20T18:17:32.825Z,3.07
2023-03-20T18:19:36.336Z,4.67
2023-03-20T18:21:40.894Z,3.33
2023-03-20T18:23:44.730Z,10.03
2023-03-20T18:25:48.294Z,5.73
2023-03-20T18:27:51.922Z,5.93
2023-03-20T18:29:56.755Z,5.30
2023-03-20T18:32:00.452Z,6.67
2023-03-20T18:34:03.922Z,4.40
2023-03-20T18:36:13.788Z,3.20
2023-03-20T18:38:17.359Z,6.10
2023-03-20T18:40:26.053Z,8.30
2023-03-20T18:42:29.545Z,3.13
2023-03-20T18:44:33.651Z,5.20
2023-03-20T18:46:38.537Z,7.27
2023-03-20T18:48:42.658Z,6.93
2023-03-20T18:50:50.928Z,3.57
2023-03-20T18:52:56.269Z,3.10
2023-03-20T18:54:59.672Z,4.20
2023-03-20T18:57:03.183Z,4.10
2023-03-20T18:59:08.642Z,2.73
2023-03-20T19:01:12.943Z,4.70
2023-03-20T19:03:17.896Z,3.13
2023-03-20T19:05:21.454Z,2.60
2023-03-20T19:07:24.867Z,4.00
2023-03-20T19:09:28.543Z,2.87
2023-03-20T19:11:32.040Z,5.27
2023-03-20T19:13:36.209Z,3.73
2023-03-20T19:15:39.673Z,3.97
2023-03-20T19:17:43.152Z,2.87
2023-03-20T19:19:47.995Z,3.20
2023-03-20T19:21:51.840Z,2.60
2023-03-20T19:23:56.720Z,5.30
2023-03-20T19:26:00.260Z,4.50
2023-03-20T19:28:04.853Z,5.77
2023-03-20T19:30:13.709Z,4.33
2023-03-20T19:32:17.215Z,4.10
2023-03-20T19:35:00.770Z,3.17
2023-03-20T19:36:48.516Z,4.37
2023-03-20T19:38:52.551Z,6.10
2023-03-20T19:40:56.413Z,2.50
2023-03-20T19:43:03.651Z,3.97
2023-03-20T19:45:08.929Z,5.80
2023-03-20T19:47:13.093Z,4.37
2023-03-20T19:49:19.738Z,3.37
2023-03-20T19:51:26.501Z,2.53
2023-03-20T19:53:31.459Z,4.03
2023-03-20T19:55:35.700Z,2.10
2023-03-20T19:57:39.342Z,2.27
2023-03-20T19:59:44.047Z,4.10
2023-03-20T20:01:47.924Z,2.63
2023-03-20T20:03:53.711Z,2.60
2023-03-20T20:05:59.252Z,4.30
2023-03-20T20:08:30.941Z,8.60
2023-03-20T20:10:34.036Z,4.60
2023-03-20T20:12:38.964Z,7.03
2023-03-20T20:14:44.034Z,6.07
2023-03-20T20:16:48.841Z,3.40
2023-03-20T20:18:52.413Z,5.57
2023-03-20T20:22:06.388Z,5.03
2023-03-20T20:23:23.297Z,4.30
2023-03-20T20:25:26.828Z,3.63
2023-03-20T20:27:32.301Z,3.60
2023-03-20T20:29:36.089Z,4.33
2023-03-20T20:31:39.743Z,5.37
2023-03-20T20:33:43.275Z,3.13
2023-03-20T20:36:11.416Z,6.17
2023-03-20T20:38:40.766Z,4.10
2023-03-20T20:40:36.658Z,4.33
2023-03-20T20:42:43.203Z,4.93
2023-03-20T20:44:46.892Z,10.97
2023-03-20T20:46:50.472Z,14.03
2023-03-20T20:48:54.000Z,7.87
2023-03-20T20:51:00.645Z,3.70
2023-03-20T20:53:04.796Z,4.17
2023-03-20T20:55:22.007Z,5.93
2023-03-20T20:57:27.235Z,5.27
2023-03-20T20:59:32.112Z,5.43
2023-03-20T21:01:36.160Z,3.20
2023-03-20T21:03:39.970Z,3.03
2023-03-20T21:05:43.932Z,3.40
2023-03-20T21:07:49.948Z,4.30
2023-03-20T21:09:56.287Z,5.80
2023-03-20T21:11:59.954Z,7.77
2023-03-20T21:14:03.660Z,2.77
2023-03-20T21:16:09.429Z,4.77
2023-03-20T21:18:13.033Z,5.23
2023-03-20T21:20:17.193Z,3.60
2023-03-20T21:22:22.651Z,3.53
2023-03-20T21:24:33.163Z,5.00
2023-03-20T21:26:37.285Z,5.83
2023-03-20T21:28:41.040Z,4.50
2023-03-20T21:31:08.914Z,3.67
2023-03-20T21:33:09.782Z,4.43
2023-03-20T21:35:14.084Z,2.70
2023-03-20T21:38:33.381Z,3.43
2023-03-20T21:39:43.939Z,3.30
2023-03-20T21:41:48.011Z,4.43
2023-03-20T21:43:52.094Z,3.40
2023-03-20T21:48:58.442Z,4.83
2023-03-20T21:51:28.515Z,4.17
2023-03-20T21:53:59.052Z,3.70
2023-03-20T22:02:49.061Z,4.77
2023-03-20T22:07:56.229Z,6.47
2023-03-20T22:12:53.512Z,7.17
2023-03-20T22:24:55.003Z,4.63
2023-03-20T22:29:53.318Z,8.43
2023-03-20T22:37:14.274Z,5.40
2023-03-20T22:46:05.487Z,5.23
2023-03-20T22:48:12.906Z,6.40
2023-03-20T22:50:16.672Z,6.73
2023-03-20T22:52:31.872Z,4.30
2023-03-20T22:54:39.937Z,9.47
2023-03-20T22:56:43.535Z,3.83
2023-03-20T22:58:47.265Z,6.90
2023-03-20T23:00:51.027Z,4.93
2023-03-20T23:02:57.401Z,4.03
2023-03-20T23:05:08.140Z,6.37
2023-03-20T23:07:11.700Z,5.83
2023-03-20T23:09:16.018Z,5.90
2023-03-20T23:11:22.385Z,5.13
2023-03-20T23:13:26.174Z,7.20
2023-03-20T23:15:31.187Z,5.33
2023-03-20T23:17:34.632Z,4.53
2023-03-20T23:19:47.692Z,4.60
2023-03-20T23:21:53.832Z,7.50
2023-03-20T23:23:57.335Z,4.07
2023-03-20T23:26:05.409Z,7.73
2023-03-20T23:28:11.025Z,3.83
2023-03-20T23:30:15.521Z,4.53
2023-03-20T23:32:19.028Z,4.37
2023-03-20T23:34:22.531Z,5.10
2023-03-20T23:36:42.872Z,7.73
2023-03-20T23:38:46.851Z,8.50
2023-03-20T23:40:51.167Z,9.90
2023-03-20T23:42:54.661Z,4.13
2023-03-20T23:45:07.174Z,4.17
2023-03-20T23:47:20.269Z,6.93
2023-03-20T23:49:24.564Z,6.37
2023-03-20T23:51:27.985Z,5.33
2023-03-20T23:53:31.394Z,3.90
2023-03-20T23:55:35.828Z,5.77
2023-03-20T23:57:39.304Z,4.73
2023-03-20T23:59:42.737Z,9.43
